Terminal Aerodrome Forecast
Issued by NWS

Home | Current Version | Previous Version | Text Only | Print | Product List | Glossary On
Versions: 1 2 3 4 5 6 7 8 9 10 11 12
000
FTUS46 KPDT 291139
TAFDLS
TAF
KDLS 291139Z 2912/3012 32007KT P6SM SCT130
     FM291900 02008KT P6SM FEW090 SCT150
     FM300400 33008KT P6SM BKN150
     FM300900 31007KT P6SM FEW130 SCT150=

USA.gov is the U.S. government's official web portal to all federal, state and local government web resources and services.